»·PEaware :: ASA696 KSEA-KGEG

ASA696 :: KSEA-KGEG

FLIGHT INFORMATION

Flight Status: Arrived
Operator:
Alaska Airlines
More flights by this operator :: More flights under this callsign
Pilot: Dave P. (45)
Aircraft: BOEING 737-700
(B737)
More flights by this aircraft type
Origin: KSEA Seattle-Tacoma Intl
United States
Destination: KGEG Spokane Intl
United States
More flights between these airports :: More routes between these airports
Route: +SEA6 ZADON ZELAK ZIRAN ZOOMR ZOOMR1
File this flight plan on PilotEdge
Remarks: PBN / A1B1C1D1S1S2 DOF / 180608 REG / N737PM OPR / ASA PER / C RMK / TCAS SIMBRIEF
Altitude:
(Current/Filed)
29,000ft
Speed:
(Current/Filed)
445kts
Departed: 08-Jun-18 08:36 AM
Arrived: 08-Jun-18 09:16 AM
Distance/Time
Traveled:
194nm/0:40
Distance/Time
To Go:
Arrived

Flight Plot

Page will automatically refresh every two minutes.

Flight plan parsing failed; only flown route is shown


Map Options




Map Legend


Flown Route
Filed Route
Departure Airport
Arrival Airport
Navaid (VOR, NDB)
Fix

Horizontal Profiles

Position Reports

Time Latitude Longitude Heading Altitude Ground
Speed
08-Jun-18 08:12 47.445377 -122.301746 132 441ft 0kts
08-Jun-18 08:13 47.445377 -122.301746 132 441ft 0kts
08-Jun-18 08:14 47.445377 -122.301746 132 441ft 0kts
08-Jun-18 08:15 47.445377 -122.301746 132 441ft 0kts
08-Jun-18 08:16 47.445377 -122.301746 132 441ft 0kts
08-Jun-18 08:17 47.445377 -122.301746 132 441ft 0kts
08-Jun-18 08:18 47.445377 -122.301746 132 441ft 0kts
08-Jun-18 08:19 47.445377 -122.301746 132 441ft 0kts
08-Jun-18 08:20 47.445377 -122.301746 132 441ft 0kts
08-Jun-18 08:21 47.445377 -122.301746 132 441ft 0kts
08-Jun-18 08:22 47.445377 -122.301746 132 441ft 0kts
08-Jun-18 08:23 47.445377 -122.301746 132 441ft 0kts
08-Jun-18 08:24 47.445377 -122.301746 132 441ft 0kts
08-Jun-18 08:25 47.445377 -122.301746 132 440ft 0kts
08-Jun-18 08:26 47.445720 -122.302296 132 440ft 2kts
08-Jun-18 08:27 47.445763 -122.302365 132 440ft 0kts
08-Jun-18 08:28 47.445763 -122.302365 132 440ft 0kts
08-Jun-18 08:29 47.445790 -122.302108 46 440ft 8kts
08-Jun-18 08:30 47.447556 -122.304916 270 440ft 0kts
08-Jun-18 08:31 47.447559 -122.305497 270 440ft 10kts
08-Jun-18 08:32 47.451790 -122.306249 0 440ft 17kts
08-Jun-18 08:33 47.457649 -122.306204 0 440ft 20kts
08-Jun-18 08:34 47.462776 -122.306168 0 440ft 9kts
08-Jun-18 08:35 47.463448 -122.306872 270 440ft 7kts
08-Jun-18 08:36 47.454576 -122.307807 180 441ft 118kts
08-Jun-18 08:37 47.413852 -122.307991 182 2685ft 152kts
08-Jun-18 08:38 47.359408 -122.311053 182 4343ft 236kts
08-Jun-18 08:39 47.302640 -122.272885 103 7923ft 280kts
08-Jun-18 08:40 47.343713 -122.167213 55 11044ft 328kts
08-Jun-18 08:41 47.405358 -122.046635 54 12980ft 393kts
08-Jun-18 08:42 47.472962 -121.914279 55 16200ft 415kts
08-Jun-18 08:43 47.543603 -121.772433 63 19114ft 437kts
08-Jun-18 08:44 47.561264 -121.598322 99 21683ft 437kts
08-Jun-18 08:45 47.557758 -121.413913 97 23938ft 458kts
08-Jun-18 08:46 47.554476 -121.221526 98 25949ft 475kts
08-Jun-18 08:47 47.550788 -121.023199 97 27679ft 489kts
08-Jun-18 08:48 47.547811 -120.820973 98 29090ft 494kts
08-Jun-18 08:49 47.543608 -120.618243 98 29080ft 490kts
08-Jun-18 08:50 47.538860 -120.416950 98 29056ft 490kts
08-Jun-18 08:51 47.529691 -120.216093 100 29050ft 488kts
08-Jun-18 08:52 47.519678 -120.016096 100 29050ft 488kts
08-Jun-18 08:53 47.509971 -119.816020 99 29053ft 488kts
08-Jun-18 08:54 47.500144 -119.615411 100 28978ft 487kts
08-Jun-18 08:55 47.490007 -119.420475 99 26655ft 468kts
08-Jun-18 08:56 47.479849 -119.232227 99 24185ft 451kts
08-Jun-18 08:57 47.469737 -119.050415 99 21767ft 434kts
08-Jun-18 08:58 47.459765 -118.876088 99 19420ft 418kts
08-Jun-18 08:59 47.450236 -118.708241 98 17087ft 404kts
08-Jun-18 09:00 47.440426 -118.545488 98 14778ft 389kts
08-Jun-18 09:01 47.430893 -118.393790 99 12571ft 362kts
08-Jun-18 09:02 47.436686 -118.248034 75 10680ft 356kts
08-Jun-18 09:03 47.466368 -118.112119 74 9472ft 322kts
08-Jun-18 09:04 47.490257 -117.995818 74 8380ft 285kts
08-Jun-18 09:05 47.512455 -117.888336 74 7256ft 267kts
08-Jun-18 09:06 47.539252 -117.789796 46 6297ft 248kts
08-Jun-18 09:07 47.588252 -117.721923 45 5258ft 238kts
08-Jun-18 09:08 47.634077 -117.655417 46 5020ft 225kts
08-Jun-18 09:09 47.679168 -117.589573 45 4994ft 222kts
08-Jun-18 09:10 47.719982 -117.530118 46 4860ft 193kts
08-Jun-18 09:11 47.754173 -117.474237 81 4330ft 184kts
08-Jun-18 09:12 47.724645 -117.422249 171 3947ft 164kts
08-Jun-18 09:13 47.682213 -117.440006 225 3638ft 161kts
08-Jun-18 09:14 47.652140 -117.486742 223 2993ft 147kts
08-Jun-18 09:15 47.625255 -117.527229 225 2380ft 102kts
08-Jun-18 09:16 47.617849 -117.539583 269 2380ft 12kts
08-Jun-18 09:17 47.619873 -117.540175 45 2380ft 18kts
08-Jun-18 09:18 47.623345 -117.536155 315 2380ft 15kts
08-Jun-18 09:19 47.624969 -117.538478 353 2380ft 0kts
08-Jun-18 09:20 47.624969 -117.538478 353 2380ft 0kts
08-Jun-18 09:21 47.624969 -117.538478 353 2380ft 0kts
08-Jun-18 09:22 47.624969 -117.538478 353 2380ft 0kts
08-Jun-18 09:23 47.624969 -117.538478 353 2380ft 0kts

Navigation Log

Ident Type
Flight plan parsing failed, navigation log unavailable